sensor_id;sensor_type;location;lat;lon;timestamp;P1;durP1;ratioP1;P2;durP2;ratioP2
11498;SDS011;5806;48.748;9.278;2023-07-08T00:00:28;5.27;;;4.10;;
11498;SDS011;5806;48.748;9.278;2023-07-08T00:02:55;5.73;;;4.20;;
11498;SDS011;5806;48.748;9.278;2023-07-08T00:05:22;4.97;;;4.37;;
11498;SDS011;5806;48.748;9.278;2023-07-08T00:07:49;5.63;;;4.00;;
11498;SDS011;5806;48.748;9.278;2023-07-08T00:12:45;4.93;;;3.80;;
11498;SDS011;5806;48.748;9.278;2023-07-08T00:15:12;5.23;;;4.00;;
11498;SDS011;5806;48.748;9.278;2023-07-08T00:17:38;5.93;;;4.30;;
11498;SDS011;5806;48.748;9.278;2023-07-08T00:20:12;5.37;;;3.97;;
11498;SDS011;5806;48.748;9.278;2023-07-08T00:22:39;5.07;;;3.80;;
11498;SDS011;5806;48.748;9.278;2023-07-08T00:25:06;4.13;;;3.53;;
11498;SDS011;5806;48.748;9.278;2023-07-08T00:27:33;4.57;;;3.77;;
11498;SDS011;5806;48.748;9.278;2023-07-08T00:30:00;6.17;;;3.87;;
11498;SDS011;5806;48.748;9.278;2023-07-08T00:32:26;5.40;;;4.07;;
11498;SDS011;5806;48.748;9.278;2023-07-08T00:34:53;4.37;;;3.70;;
11498;SDS011;5806;48.748;9.278;2023-07-08T00:37:19;4.30;;;3.70;;
11498;SDS011;5806;48.748;9.278;2023-07-08T00:39:46;5.83;;;3.13;;
11498;SDS011;5806;48.748;9.278;2023-07-08T00:42:16;9.10;;;4.43;;
11498;SDS011;5806;48.748;9.278;2023-07-08T00:44:43;4.57;;;3.97;;
11498;SDS011;5806;48.748;9.278;2023-07-08T00:47:10;6.43;;;3.60;;
11498;SDS011;5806;48.748;9.278;2023-07-08T00:49:49;5.87;;;3.67;;
11498;SDS011;5806;48.748;9.278;2023-07-08T00:52:27;4.87;;;3.90;;
11498;SDS011;5806;48.748;9.278;2023-07-08T00:54:51;5.57;;;3.83;;
11498;SDS011;5806;48.748;9.278;2023-07-08T00:57:18;5.80;;;3.87;;
11498;SDS011;5806;48.748;9.278;2023-07-08T00:59:53;6.37;;;4.20;;
11498;SDS011;5806;48.748;9.278;2023-07-08T01:02:16;6.03;;;4.00;;
11498;SDS011;5806;48.748;9.278;2023-07-08T01:04:52;4.80;;;3.60;;
11498;SDS011;5806;48.748;9.278;2023-07-08T01:07:19;4.50;;;3.80;;
11498;SDS011;5806;48.748;9.278;2023-07-08T01:09:47;4.10;;;3.70;;
11498;SDS011;5806;48.748;9.278;2023-07-08T01:12:16;6.93;;;4.40;;
11498;SDS011;5806;48.748;9.278;2023-07-08T01:14:42;6.30;;;4.10;;
11498;SDS011;5806;48.748;9.278;2023-07-08T01:17:09;5.07;;;3.83;;
11498;SDS011;5806;48.748;9.278;2023-07-08T01:19:38;5.70;;;4.13;;
11498;SDS011;5806;48.748;9.278;2023-07-08T01:22:05;5.93;;;4.10;;
11498;SDS011;5806;48.748;9.278;2023-07-08T01:24:33;4.97;;;3.70;;
11498;SDS011;5806;48.748;9.278;2023-07-08T01:27:01;5.63;;;3.73;;
11498;SDS011;5806;48.748;9.278;2023-07-08T01:29:28;5.40;;;3.67;;
11498;SDS011;5806;48.748;9.278;2023-07-08T01:32:00;4.63;;;3.70;;
11498;SDS011;5806;48.748;9.278;2023-07-08T01:34:23;4.43;;;3.87;;
11498;SDS011;5806;48.748;9.278;2023-07-08T01:36:54;5.00;;;3.87;;
11498;SDS011;5806;48.748;9.278;2023-07-08T01:39:18;5.07;;;4.07;;
11498;SDS011;5806;48.748;9.278;2023-07-08T01:41:45;7.33;;;4.00;;
11498;SDS011;5806;48.748;9.278;2023-07-08T01:44:31;5.83;;;4.33;;
11498;SDS011;5806;48.748;9.278;2023-07-08T01:47:00;5.33;;;3.70;;
11498;SDS011;5806;48.748;9.278;2023-07-08T01:49:26;5.10;;;3.47;;
11498;SDS011;5806;48.748;9.278;2023-07-08T01:51:53;4.50;;;3.63;;
11498;SDS011;5806;48.748;9.278;2023-07-08T01:54:19;5.07;;;3.87;;
11498;SDS011;5806;48.748;9.278;2023-07-08T01:56:46;5.37;;;3.90;;
11498;SDS011;5806;48.748;9.278;2023-07-08T01:59:14;5.50;;;3.87;;
11498;SDS011;5806;48.748;9.278;2023-07-08T02:01:41;4.50;;;4.10;;
11498;SDS011;5806;48.748;9.278;2023-07-08T02:04:07;6.43;;;4.47;;
11498;SDS011;5806;48.748;9.278;2023-07-08T02:06:34;5.83;;;3.90;;
11498;SDS011;5806;48.748;9.278;2023-07-08T02:09:00;4.40;;;3.83;;
11498;SDS011;5806;48.748;9.278;2023-07-08T02:11:28;6.63;;;4.30;;
11498;SDS011;5806;48.748;9.278;2023-07-08T02:13:54;4.80;;;3.90;;
11498;SDS011;5806;48.748;9.278;2023-07-08T02:16:21;5.87;;;4.30;;
11498;SDS011;5806;48.748;9.278;2023-07-08T02:18:47;5.07;;;4.07;;
11498;SDS011;5806;48.748;9.278;2023-07-08T02:21:14;5.57;;;4.30;;
11498;SDS011;5806;48.748;9.278;2023-07-08T02:23:42;4.80;;;4.30;;
11498;SDS011;5806;48.748;9.278;2023-07-08T02:26:09;6.47;;;3.87;;
11498;SDS011;5806;48.748;9.278;2023-07-08T02:28:35;5.10;;;3.87;;
11498;SDS011;5806;48.748;9.278;2023-07-08T02:31:02;6.50;;;3.97;;
11498;SDS011;5806;48.748;9.278;2023-07-08T02:33:29;6.60;;;4.47;;
11498;SDS011;5806;48.748;9.278;2023-07-08T02:35:57;5.57;;;4.10;;
11498;SDS011;5806;48.748;9.278;2023-07-08T02:38:24;7.40;;;4.60;;
11498;SDS011;5806;48.748;9.278;2023-07-08T02:40:50;6.83;;;4.63;;
11498;SDS011;5806;48.748;9.278;2023-07-08T02:43:17;5.50;;;4.43;;
11498;SDS011;5806;48.748;9.278;2023-07-08T02:45:43;6.47;;;4.93;;
11498;SDS011;5806;48.748;9.278;2023-07-08T02:48:10;5.93;;;4.43;;
11498;SDS011;5806;48.748;9.278;2023-07-08T02:50:36;6.60;;;4.97;;
11498;SDS011;5806;48.748;9.278;2023-07-08T02:53:03;6.83;;;4.70;;
11498;SDS011;5806;48.748;9.278;2023-07-08T02:55:29;7.13;;;4.90;;
11498;SDS011;5806;48.748;9.278;2023-07-08T02:57:56;4.90;;;4.33;;
11498;SDS011;5806;48.748;9.278;2023-07-08T03:00:23;5.97;;;4.47;;
11498;SDS011;5806;48.748;9.278;2023-07-08T03:02:49;4.97;;;3.80;;
11498;SDS011;5806;48.748;9.278;2023-07-08T03:05:16;5.57;;;4.23;;
11498;SDS011;5806;48.748;9.278;2023-07-08T03:07:42;5.33;;;4.27;;
11498;SDS011;5806;48.748;9.278;2023-07-08T03:10:09;6.13;;;4.20;;
11498;SDS011;5806;48.748;9.278;2023-07-08T03:12:35;7.43;;;4.53;;
11498;SDS011;5806;48.748;9.278;2023-07-08T03:15:02;5.90;;;4.30;;
11498;SDS011;5806;48.748;9.278;2023-07-08T03:17:29;7.10;;;4.17;;
11498;SDS011;5806;48.748;9.278;2023-07-08T03:19:55;5.73;;;4.33;;
11498;SDS011;5806;48.748;9.278;2023-07-08T03:22:22;6.47;;;4.90;;
11498;SDS011;5806;48.748;9.278;2023-07-08T03:24:48;5.73;;;4.40;;
11498;SDS011;5806;48.748;9.278;2023-07-08T03:27:15;6.73;;;5.00;;
11498;SDS011;5806;48.748;9.278;2023-07-08T03:29:42;5.13;;;3.87;;
11498;SDS011;5806;48.748;9.278;2023-07-08T03:32:10;5.07;;;4.57;;
11498;SDS011;5806;48.748;9.278;2023-07-08T03:34:37;5.20;;;4.33;;
11498;SDS011;5806;48.748;9.278;2023-07-08T03:37:03;5.90;;;4.50;;
11498;SDS011;5806;48.748;9.278;2023-07-08T03:39:30;5.80;;;4.53;;
11498;SDS011;5806;48.748;9.278;2023-07-08T03:41:57;5.97;;;4.10;;
11498;SDS011;5806;48.748;9.278;2023-07-08T03:44:24;6.10;;;4.73;;
11498;SDS011;5806;48.748;9.278;2023-07-08T03:46:50;5.00;;;4.50;;
11498;SDS011;5806;48.748;9.278;2023-07-08T03:49:18;5.13;;;4.57;;
11498;SDS011;5806;48.748;9.278;2023-07-08T03:51:51;5.77;;;4.87;;
11498;SDS011;5806;48.748;9.278;2023-07-08T03:54:19;8.00;;;4.77;;
11498;SDS011;5806;48.748;9.278;2023-07-08T03:56:46;6.63;;;4.60;;
11498;SDS011;5806;48.748;9.278;2023-07-08T03:59:12;7.40;;;4.47;;
11498;SDS011;5806;48.748;9.278;2023-07-08T04:01:39;4.90;;;4.40;;
11498;SDS011;5806;48.748;9.278;2023-07-08T04:04:06;6.43;;;4.67;;
11498;SDS011;5806;48.748;9.278;2023-07-08T04:06:35;5.30;;;4.33;;
11498;SDS011;5806;48.748;9.278;2023-07-08T04:09:01;6.23;;;4.63;;
11498;SDS011;5806;48.748;9.278;2023-07-08T04:11:28;6.20;;;4.70;;
11498;SDS011;5806;48.748;9.278;2023-07-08T04:13:54;7.30;;;5.00;;
11498;SDS011;5806;48.748;9.278;2023-07-08T04:16:23;6.70;;;4.53;;
11498;SDS011;5806;48.748;9.278;2023-07-08T04:18:50;7.50;;;4.80;;
11498;SDS011;5806;48.748;9.278;2023-07-08T04:21:18;4.93;;;3.90;;
11498;SDS011;5806;48.748;9.278;2023-07-08T04:23:44;4.83;;;4.33;;
11498;SDS011;5806;48.748;9.278;2023-07-08T04:26:11;5.37;;;4.30;;
11498;SDS011;5806;48.748;9.278;2023-07-08T04:28:38;5.63;;;4.50;;
11498;SDS011;5806;48.748;9.278;2023-07-08T04:31:04;6.10;;;4.77;;
11498;SDS011;5806;48.748;9.278;2023-07-08T04:33:31;7.17;;;5.00;;
11498;SDS011;5806;48.748;9.278;2023-07-08T04:35:57;6.20;;;4.60;;
11498;SDS011;5806;48.748;9.278;2023-07-08T04:38:24;7.47;;;4.70;;
11498;SDS011;5806;48.748;9.278;2023-07-08T04:40:51;6.53;;;4.73;;
11498;SDS011;5806;48.748;9.278;2023-07-08T04:43:19;7.23;;;4.30;;
11498;SDS011;5806;48.748;9.278;2023-07-08T04:45:50;6.80;;;4.80;;
11498;SDS011;5806;48.748;9.278;2023-07-08T04:48:17;6.00;;;4.10;;
11498;SDS011;5806;48.748;9.278;2023-07-08T04:50:45;5.57;;;4.50;;
11498;SDS011;5806;48.748;9.278;2023-07-08T04:53:12;6.07;;;4.40;;
11498;SDS011;5806;48.748;9.278;2023-07-08T04:55:43;7.73;;;4.80;;
11498;SDS011;5806;48.748;9.278;2023-07-08T04:58:06;6.63;;;5.03;;
11498;SDS011;5806;48.748;9.278;2023-07-08T05:00:33;7.07;;;4.53;;
11498;SDS011;5806;48.748;9.278;2023-07-08T05:03:00;5.30;;;4.40;;
11498;SDS011;5806;48.748;9.278;2023-07-08T05:05:26;6.40;;;4.87;;
11498;SDS011;5806;48.748;9.278;2023-07-08T05:07:53;6.17;;;4.23;;
11498;SDS011;5806;48.748;9.278;2023-07-08T05:10:20;5.97;;;4.73;;
11498;SDS011;5806;48.748;9.278;2023-07-08T05:12:46;6.60;;;4.60;;
11498;SDS011;5806;48.748;9.278;2023-07-08T05:15:13;6.80;;;4.73;;
11498;SDS011;5806;48.748;9.278;2023-07-08T05:17:40;6.40;;;5.47;;
11498;SDS011;5806;48.748;9.278;2023-07-08T05:20:10;5.80;;;4.33;;
11498;SDS011;5806;48.748;9.278;2023-07-08T05:22:36;6.27;;;4.80;;
11498;SDS011;5806;48.748;9.278;2023-07-08T05:25:03;8.00;;;4.53;;
11498;SDS011;5806;48.748;9.278;2023-07-08T05:27:31;6.47;;;4.47;;
11498;SDS011;5806;48.748;9.278;2023-07-08T05:29:59;5.53;;;4.13;;
11498;SDS011;5806;48.748;9.278;2023-07-08T05:32:26;5.20;;;4.07;;
11498;SDS011;5806;48.748;9.278;2023-07-08T05:34:53;6.33;;;4.50;;
11498;SDS011;5806;48.748;9.278;2023-07-08T05:37:20;6.73;;;4.73;;
11498;SDS011;5806;48.748;9.278;2023-07-08T05:39:48;6.10;;;4.83;;
11498;SDS011;5806;48.748;9.278;2023-07-08T05:42:16;6.63;;;4.83;;
11498;SDS011;5806;48.748;9.278;2023-07-08T05:44:42;5.43;;;4.70;;
11498;SDS011;5806;48.748;9.278;2023-07-08T05:47:09;6.50;;;5.20;;
11498;SDS011;5806;48.748;9.278;2023-07-08T05:49:35;5.57;;;4.70;;
11498;SDS011;5806;48.748;9.278;2023-07-08T05:52:02;5.10;;;4.40;;
11498;SDS011;5806;48.748;9.278;2023-07-08T05:54:30;5.63;;;4.53;;
11498;SDS011;5806;48.748;9.278;2023-07-08T05:56:57;6.57;;;5.20;;
11498;SDS011;5806;48.748;9.278;2023-07-08T05:59:23;5.67;;;5.00;;
11498;SDS011;5806;48.748;9.278;2023-07-08T06:01:50;5.67;;;4.47;;
11498;SDS011;5806;48.748;9.278;2023-07-08T06:04:16;6.43;;;5.20;;
11498;SDS011;5806;48.748;9.278;2023-07-08T06:06:42;5.30;;;4.80;;
11498;SDS011;5806;48.748;9.278;2023-07-08T06:09:09;5.53;;;5.03;;
11498;SDS011;5806;48.748;9.278;2023-07-08T06:11:36;6.77;;;4.80;;
11498;SDS011;5806;48.748;9.278;2023-07-08T06:14:02;6.97;;;5.10;;
11498;SDS011;5806;48.748;9.278;2023-07-08T06:16:29;6.07;;;4.83;;
11498;SDS011;5806;48.748;9.278;2023-07-08T06:18:56;6.70;;;5.00;;
11498;SDS011;5806;48.748;9.278;2023-07-08T06:21:23;6.73;;;5.10;;
11498;SDS011;5806;48.748;9.278;2023-07-08T06:23:50;5.27;;;4.73;;
11498;SDS011;5806;48.748;9.278;2023-07-08T06:26:16;6.67;;;4.73;;
11498;SDS011;5806;48.748;9.278;2023-07-08T06:28:43;8.67;;;4.23;;
11498;SDS011;5806;48.748;9.278;2023-07-08T06:31:09;6.47;;;4.67;;
11498;SDS011;5806;48.748;9.278;2023-07-08T06:33:36;7.00;;;4.70;;
11498;SDS011;5806;48.748;9.278;2023-07-08T06:36:02;6.20;;;4.30;;
11498;SDS011;5806;48.748;9.278;2023-07-08T06:38:30;6.77;;;4.53;;
11498;SDS011;5806;48.748;9.278;2023-07-08T06:40:56;6.57;;;4.70;;
11498;SDS011;5806;48.748;9.278;2023-07-08T06:43:23;6.27;;;4.40;;
11498;SDS011;5806;48.748;9.278;2023-07-08T06:45:49;7.07;;;4.73;;
11498;SDS011;5806;48.748;9.278;2023-07-08T06:48:16;4.47;;;4.00;;
11498;SDS011;5806;48.748;9.278;2023-07-08T06:50:45;5.40;;;4.50;;
11498;SDS011;5806;48.748;9.278;2023-07-08T06:53:10;7.60;;;4.50;;
11498;SDS011;5806;48.748;9.278;2023-07-08T06:55:37;5.73;;;4.50;;
11498;SDS011;5806;48.748;9.278;2023-07-08T06:58:03;5.23;;;4.53;;
11498;SDS011;5806;48.748;9.278;2023-07-08T07:00:30;6.77;;;4.50;;
11498;SDS011;5806;48.748;9.278;2023-07-08T07:02:56;6.27;;;4.73;;
11498;SDS011;5806;48.748;9.278;2023-07-08T07:05:23;7.20;;;4.33;;
11498;SDS011;5806;48.748;9.278;2023-07-08T07:07:49;6.17;;;4.77;;
11498;SDS011;5806;48.748;9.278;2023-07-08T07:10:18;9.27;;;4.60;;
11498;SDS011;5806;48.748;9.278;2023-07-08T07:12:44;6.13;;;4.50;;
11498;SDS011;5806;48.748;9.278;2023-07-08T07:15:11;5.50;;;4.30;;
11498;SDS011;5806;48.748;9.278;2023-07-08T07:17:37;6.20;;;4.30;;
11498;SDS011;5806;48.748;9.278;2023-07-08T07:20:04;5.93;;;4.47;;
11498;SDS011;5806;48.748;9.278;2023-07-08T07:22:31;5.00;;;4.13;;
11498;SDS011;5806;48.748;9.278;2023-07-08T07:24:58;6.40;;;4.70;;
11498;SDS011;5806;48.748;9.278;2023-07-08T07:27:24;6.47;;;4.40;;
11498;SDS011;5806;48.748;9.278;2023-07-08T07:29:51;5.60;;;4.53;;
11498;SDS011;5806;48.748;9.278;2023-07-08T07:32:18;5.50;;;4.27;;
11498;SDS011;5806;48.748;9.278;2023-07-08T07:34:48;6.53;;;4.60;;
11498;SDS011;5806;48.748;9.278;2023-07-08T07:37:16;6.40;;;5.03;;
11498;SDS011;5806;48.748;9.278;2023-07-08T07:39:43;7.10;;;4.80;;
11498;SDS011;5806;48.748;9.278;2023-07-08T07:42:10;6.90;;;4.67;;
11498;SDS011;5806;48.748;9.278;2023-07-08T07:44:37;6.93;;;5.20;;
11498;SDS011;5806;48.748;9.278;2023-07-08T07:47:05;8.43;;;4.90;;
11498;SDS011;5806;48.748;9.278;2023-07-08T07:49:32;6.07;;;4.70;;
11498;SDS011;5806;48.748;9.278;2023-07-08T07:51:59;6.13;;;5.00;;
11498;SDS011;5806;48.748;9.278;2023-07-08T07:54:25;8.20;;;5.20;;
11498;SDS011;5806;48.748;9.278;2023-07-08T07:56:52;7.60;;;4.77;;
11498;SDS011;5806;48.748;9.278;2023-07-08T07:59:18;7.17;;;4.87;;
11498;SDS011;5806;48.748;9.278;2023-07-08T08:01:48;5.70;;;4.77;;
11498;SDS011;5806;48.748;9.278;2023-07-08T08:04:17;6.10;;;5.40;;
11498;SDS011;5806;48.748;9.278;2023-07-08T08:06:51;6.80;;;5.00;;
11498;SDS011;5806;48.748;9.278;2023-07-08T08:09:21;6.27;;;4.97;;
11498;SDS011;5806;48.748;9.278;2023-07-08T08:11:53;7.67;;;4.97;;
11498;SDS011;5806;48.748;9.278;2023-07-08T08:14:23;5.30;;;4.70;;
11498;SDS011;5806;48.748;9.278;2023-07-08T08:16:56;5.37;;;4.77;;
11498;SDS011;5806;48.748;9.278;2023-07-08T08:19:26;9.33;;;5.20;;
11498;SDS011;5806;48.748;9.278;2023-07-08T08:22:02;6.10;;;4.60;;
11498;SDS011;5806;48.748;9.278;2023-07-08T08:24:34;6.43;;;4.80;;
11498;SDS011;5806;48.748;9.278;2023-07-08T08:27:34;7.97;;;4.97;;
11498;SDS011;5806;48.748;9.278;2023-07-08T08:30:04;6.63;;;4.60;;
11498;SDS011;5806;48.748;9.278;2023-07-08T08:32:36;6.58;;;4.78;;
11498;SDS011;5806;48.748;9.278;2023-07-08T08:35:06;6.00;;;4.60;;
11498;SDS011;5806;48.748;9.278;2023-07-08T08:37:38;8.03;;;4.57;;
11498;SDS011;5806;48.748;9.278;2023-07-08T08:40:12;7.13;;;4.53;;
11498;SDS011;5806;48.748;9.278;2023-07-08T08:42:50;7.87;;;5.07;;
11498;SDS011;5806;48.748;9.278;2023-07-08T08:45:16;9.00;;;5.00;;
11498;SDS011;5806;48.748;9.278;2023-07-08T08:47:56;6.07;;;4.70;;
11498;SDS011;5806;48.748;9.278;2023-07-08T08:50:30;19.30;;;5.77;;
11498;SDS011;5806;48.748;9.278;2023-07-08T08:53:02;7.10;;;4.70;;
11498;SDS011;5806;48.748;9.278;2023-07-08T08:55:35;6.53;;;4.33;;
11498;SDS011;5806;48.748;9.278;2023-07-08T09:01:01;7.77;;;4.97;;
11498;SDS011;5806;48.748;9.278;2023-07-08T09:06:23;5.35;;;4.22;;
11498;SDS011;5806;48.748;9.278;2023-07-08T09:08:55;4.35;;;3.75;;
11498;SDS011;5806;48.748;9.278;2023-07-08T09:17:14;6.35;;;4.12;;
11498;SDS011;5806;48.748;9.278;2023-07-08T09:22:25;6.00;;;4.55;;
11498;SDS011;5806;48.748;9.278;2023-07-08T09:27:36;6.17;;;4.60;;
11498;SDS011;5806;48.748;9.278;2023-07-08T09:30:04;6.53;;;4.08;;
11498;SDS011;5806;48.748;9.278;2023-07-08T09:32:30;6.95;;;3.92;;
11498;SDS011;5806;48.748;9.278;2023-07-08T09:35:03;8.03;;;4.58;;
11498;SDS011;5806;48.748;9.278;2023-07-08T09:37:30;6.42;;;4.15;;
11498;SDS011;5806;48.748;9.278;2023-07-08T09:39:57;8.00;;;4.78;;
11498;SDS011;5806;48.748;9.278;2023-07-08T09:42:32;5.03;;;4.28;;
11498;SDS011;5806;48.748;9.278;2023-07-08T09:45:01;7.15;;;4.35;;
11498;SDS011;5806;48.748;9.278;2023-07-08T09:47:25;7.80;;;4.05;;
11498;SDS011;5806;48.748;9.278;2023-07-08T09:49:52;8.35;;;4.42;;
11498;SDS011;5806;48.748;9.278;2023-07-08T09:52:19;6.67;;;4.70;;
11498;SDS011;5806;48.748;9.278;2023-07-08T09:54:45;6.85;;;4.40;;
11498;SDS011;5806;48.748;9.278;2023-07-08T09:57:29;7.08;;;4.15;;
11498;SDS011;5806;48.748;9.278;2023-07-08T10:00:00;5.80;;;4.15;;
11498;SDS011;5806;48.748;9.278;2023-07-08T10:02:30;6.78;;;3.83;;
11498;SDS011;5806;48.748;9.278;2023-07-08T10:04:59;4.55;;;3.70;;
11498;SDS011;5806;48.748;9.278;2023-07-08T10:07:27;4.83;;;3.65;;
11498;SDS011;5806;48.748;9.278;2023-07-08T10:09:54;4.40;;;3.60;;
11498;SDS011;5806;48.748;9.278;2023-07-08T10:12:21;6.78;;;4.47;;
11498;SDS011;5806;48.748;9.278;2023-07-08T10:14:50;6.30;;;4.05;;
11498;SDS011;5806;48.748;9.278;2023-07-08T10:17:17;5.40;;;4.20;;
11498;SDS011;5806;48.748;9.278;2023-07-08T10:19:45;5.50;;;4.17;;
11498;SDS011;5806;48.748;9.278;2023-07-08T10:24:50;5.65;;;3.83;;
11498;SDS011;5806;48.748;9.278;2023-07-08T10:27:16;6.55;;;4.00;;
11498;SDS011;5806;48.748;9.278;2023-07-08T10:30:00;7.55;;;3.98;;
11498;SDS011;5806;48.748;9.278;2023-07-08T10:32:24;6.60;;;4.03;;
11498;SDS011;5806;48.748;9.278;2023-07-08T10:35:11;5.80;;;3.77;;
11498;SDS011;5806;48.748;9.278;2023-07-08T10:37:47;6.78;;;3.87;;
11498;SDS011;5806;48.748;9.278;2023-07-08T10:40:22;6.15;;;3.58;;
11498;SDS011;5806;48.748;9.278;2023-07-08T10:48:13;6.65;;;4.30;;
11498;SDS011;5806;48.748;9.278;2023-07-08T10:53:21;7.08;;;4.37;;
11498;SDS011;5806;48.748;9.278;2023-07-08T10:55:53;7.15;;;3.87;;
11498;SDS011;5806;48.748;9.278;2023-07-08T11:06:24;9.80;;;4.10;;
11498;SDS011;5806;48.748;9.278;2023-07-08T11:08:53;5.47;;;3.47;;
11498;SDS011;5806;48.748;9.278;2023-07-08T11:14:01;6.45;;;4.17;;
11498;SDS011;5806;48.748;9.278;2023-07-08T11:16:31;5.95;;;4.12;;
11498;SDS011;5806;48.748;9.278;2023-07-08T11:19:06;5.30;;;3.87;;
11498;SDS011;5806;48.748;9.278;2023-07-08T11:21:37;5.47;;;3.90;;
11498;SDS011;5806;48.748;9.278;2023-07-08T11:24:10;5.70;;;3.98;;
11498;SDS011;5806;48.748;9.278;2023-07-08T11:26:38;8.50;;;3.72;;
11498;SDS011;5806;48.748;9.278;2023-07-08T11:29:02;5.85;;;3.92;;
11498;SDS011;5806;48.748;9.278;2023-07-08T11:31:30;8.75;;;4.20;;
11498;SDS011;5806;48.748;9.278;2023-07-08T11:33:57;9.70;;;4.20;;
11498;SDS011;5806;48.748;9.278;2023-07-08T11:36:24;6.28;;;3.98;;
11498;SDS011;5806;48.748;9.278;2023-07-08T11:38:55;7.15;;;4.10;;
11498;SDS011;5806;48.748;9.278;2023-07-08T11:41:26;6.20;;;3.80;;
11498;SDS011;5806;48.748;9.278;2023-07-08T11:43:56;8.50;;;3.80;;
11498;SDS011;5806;48.748;9.278;2023-07-08T11:46:22;7.28;;;3.60;;
11498;SDS011;5806;48.748;9.278;2023-07-08T11:48:55;6.33;;;4.08;;
11498;SDS011;5806;48.748;9.278;2023-07-08T11:51:25;7.67;;;3.90;;
11498;SDS011;5806;48.748;9.278;2023-07-08T11:54:06;7.95;;;4.10;;
11498;SDS011;5806;48.748;9.278;2023-07-08T11:56:25;6.92;;;3.67;;
11498;SDS011;5806;48.748;9.278;2023-07-08T11:58:57;6.37;;;4.17;;
11498;SDS011;5806;48.748;9.278;2023-07-08T12:01:27;6.62;;;4.10;;
11498;SDS011;5806;48.748;9.278;2023-07-08T12:03:58;6.08;;;4.00;;
11498;SDS011;5806;48.748;9.278;2023-07-08T12:08:57;6.45;;;4.25;;
11498;SDS011;5806;48.748;9.278;2023-07-08T12:11:26;10.10;;;4.03;;
11498;SDS011;5806;48.748;9.278;2023-07-08T12:13:52;7.03;;;3.85;;
11498;SDS011;5806;48.748;9.278;2023-07-08T12:16:20;6.40;;;3.87;;
11498;SDS011;5806;48.748;9.278;2023-07-08T12:18:46;6.83;;;3.90;;
11498;SDS011;5806;48.748;9.278;2023-07-08T12:21:14;6.80;;;4.03;;
11498;SDS011;5806;48.748;9.278;2023-07-08T12:23:44;5.47;;;3.90;;
11498;SDS011;5806;48.748;9.278;2023-07-08T12:26:11;6.28;;;3.62;;
11498;SDS011;5806;48.748;9.278;2023-07-08T12:28:38;7.12;;;4.15;;
11498;SDS011;5806;48.748;9.278;2023-07-08T12:31:15;8.65;;;4.17;;
11498;SDS011;5806;48.748;9.278;2023-07-08T12:33:43;5.97;;;4.08;;
11498;SDS011;5806;48.748;9.278;2023-07-08T12:36:11;6.12;;;3.50;;
11498;SDS011;5806;48.748;9.278;2023-07-08T12:38:40;7.90;;;4.03;;
11498;SDS011;5806;48.748;9.278;2023-07-08T12:41:16;6.40;;;4.08;;
11498;SDS011;5806;48.748;9.278;2023-07-08T12:43:37;5.28;;;3.75;;
11498;SDS011;5806;48.748;9.278;2023-07-08T12:46:04;6.83;;;4.30;;
11498;SDS011;5806;48.748;9.278;2023-07-08T12:48:36;7.35;;;4.03;;
11498;SDS011;5806;48.748;9.278;2023-07-08T12:51:03;8.78;;;4.37;;
11498;SDS011;5806;48.748;9.278;2023-07-08T12:53:29;5.45;;;3.40;;
11498;SDS011;5806;48.748;9.278;2023-07-08T12:55:58;5.67;;;3.60;;
11498;SDS011;5806;48.748;9.278;2023-07-08T12:58:25;6.00;;;4.17;;
11498;SDS011;5806;48.748;9.278;2023-07-08T13:00:54;7.35;;;4.80;;
11498;SDS011;5806;48.748;9.278;2023-07-08T13:03:22;7.72;;;4.55;;
11498;SDS011;5806;48.748;9.278;2023-07-08T13:05:49;7.72;;;4.33;;
11498;SDS011;5806;48.748;9.278;2023-07-08T13:08:18;8.00;;;3.85;;
11498;SDS011;5806;48.748;9.278;2023-07-08T13:10:45;7.80;;;3.90;;
11498;SDS011;5806;48.748;9.278;2023-07-08T13:13:13;4.97;;;3.70;;
11498;SDS011;5806;48.748;9.278;2023-07-08T13:15:40;7.80;;;4.20;;
11498;SDS011;5806;48.748;9.278;2023-07-08T13:18:21;8.18;;;4.67;;
11498;SDS011;5806;48.748;9.278;2023-07-08T13:20:55;7.55;;;4.30;;
11498;SDS011;5806;48.748;9.278;2023-07-08T13:23:18;6.30;;;4.33;;
11498;SDS011;5806;48.748;9.278;2023-07-08T13:25:50;6.72;;;4.17;;
11498;SDS011;5806;48.748;9.278;2023-07-08T13:28:18;7.72;;;4.22;;
11498;SDS011;5806;48.748;9.278;2023-07-08T13:30:58;8.45;;;4.47;;
11498;SDS011;5806;48.748;9.278;2023-07-08T13:33:29;5.90;;;4.10;;
11498;SDS011;5806;48.748;9.278;2023-07-08T13:35:55;5.47;;;4.12;;
11498;SDS011;5806;48.748;9.278;2023-07-08T13:38:23;5.80;;;4.40;;
11498;SDS011;5806;48.748;9.278;2023-07-08T13:41:00;7.10;;;4.60;;
11498;SDS011;5806;48.748;9.278;2023-07-08T13:43:25;9.55;;;4.70;;
11498;SDS011;5806;48.748;9.278;2023-07-08T13:45:52;8.00;;;4.80;;
11498;SDS011;5806;48.748;9.278;2023-07-08T13:50:51;6.87;;;4.60;;
11498;SDS011;5806;48.748;9.278;2023-07-08T13:53:19;7.05;;;4.25;;
11498;SDS011;5806;48.748;9.278;2023-07-08T13:55:45;7.30;;;4.62;;
11498;SDS011;5806;48.748;9.278;2023-07-08T13:58:14;7.78;;;5.00;;
11498;SDS011;5806;48.748;9.278;2023-07-08T14:00:40;5.75;;;4.87;;
11498;SDS011;5806;48.748;9.278;2023-07-08T14:03:09;5.28;;;4.62;;
11498;SDS011;5806;48.748;9.278;2023-07-08T14:05:36;7.12;;;4.67;;
11498;SDS011;5806;48.748;9.278;2023-07-08T14:08:04;6.97;;;4.42;;
11498;SDS011;5806;48.748;9.278;2023-07-08T14:10:31;7.78;;;5.10;;
11498;SDS011;5806;48.748;9.278;2023-07-08T14:12:57;9.93;;;4.45;;
11498;SDS011;5806;48.748;9.278;2023-07-08T14:15:24;6.80;;;4.70;;
11498;SDS011;5806;48.748;9.278;2023-07-08T14:17:50;7.35;;;4.50;;
11498;SDS011;5806;48.748;9.278;2023-07-08T14:20:17;10.82;;;4.75;;
11498;SDS011;5806;48.748;9.278;2023-07-08T14:22:44;6.05;;;4.95;;
11498;SDS011;5806;48.748;9.278;2023-07-08T14:25:13;6.35;;;4.75;;
11498;SDS011;5806;48.748;9.278;2023-07-08T14:27:39;7.25;;;4.40;;
11498;SDS011;5806;48.748;9.278;2023-07-08T14:30:05;6.65;;;4.00;;
11498;SDS011;5806;48.748;9.278;2023-07-08T14:32:33;7.95;;;4.75;;
11498;SDS011;5806;48.748;9.278;2023-07-08T14:35:09;6.08;;;4.20;;
11498;SDS011;5806;48.748;9.278;2023-07-08T14:37:28;8.60;;;4.30;;
11498;SDS011;5806;48.748;9.278;2023-07-08T14:39:55;5.50;;;4.65;;
11498;SDS011;5806;48.748;9.278;2023-07-08T14:42:22;9.73;;;4.75;;
11498;SDS011;5806;48.748;9.278;2023-07-08T14:44:49;7.65;;;5.10;;
11498;SDS011;5806;48.748;9.278;2023-07-08T14:47:17;7.85;;;4.75;;
11498;SDS011;5806;48.748;9.278;2023-07-08T14:49:44;6.33;;;4.60;;
11498;SDS011;5806;48.748;9.278;2023-07-08T14:52:11;12.75;;;4.78;;
11498;SDS011;5806;48.748;9.278;2023-07-08T14:54:38;11.18;;;5.05;;
11498;SDS011;5806;48.748;9.278;2023-07-08T14:57:04;7.55;;;4.60;;
11498;SDS011;5806;48.748;9.278;2023-07-08T14:59:32;8.63;;;4.67;;
11498;SDS011;5806;48.748;9.278;2023-07-08T15:02:02;5.85;;;4.50;;
11498;SDS011;5806;48.748;9.278;2023-07-08T15:04:27;5.75;;;4.25;;
11498;SDS011;5806;48.748;9.278;2023-07-08T15:06:54;7.62;;;4.78;;
11498;SDS011;5806;48.748;9.278;2023-07-08T15:09:22;6.78;;;4.72;;
11498;SDS011;5806;48.748;9.278;2023-07-08T15:11:49;7.95;;;5.05;;
11498;SDS011;5806;48.748;9.278;2023-07-08T15:14:22;7.08;;;4.72;;
11498;SDS011;5806;48.748;9.278;2023-07-08T15:16:49;9.73;;;4.67;;
11498;SDS011;5806;48.748;9.278;2023-07-08T15:19:16;7.75;;;4.72;;
11498;SDS011;5806;48.748;9.278;2023-07-08T15:21:44;9.65;;;4.60;;
11498;SDS011;5806;48.748;9.278;2023-07-08T15:24:12;7.22;;;4.45;;
11498;SDS011;5806;48.748;9.278;2023-07-08T15:26:39;9.93;;;5.72;;
11498;SDS011;5806;48.748;9.278;2023-07-08T15:29:06;9.00;;;4.85;;
11498;SDS011;5806;48.748;9.278;2023-07-08T15:31:34;8.80;;;4.90;;
11498;SDS011;5806;48.748;9.278;2023-07-08T15:34:00;10.32;;;5.30;;
11498;SDS011;5806;48.748;9.278;2023-07-08T15:36:27;5.97;;;4.53;;
11498;SDS011;5806;48.748;9.278;2023-07-08T15:38:53;7.25;;;4.75;;
11498;SDS011;5806;48.748;9.278;2023-07-08T15:41:21;6.12;;;4.70;;
11498;SDS011;5806;48.748;9.278;2023-07-08T15:43:48;8.55;;;4.92;;
11498;SDS011;5806;48.748;9.278;2023-07-08T15:46:15;8.40;;;4.70;;
11498;SDS011;5806;48.748;9.278;2023-07-08T15:48:42;7.03;;;4.72;;
11498;SDS011;5806;48.748;9.278;2023-07-08T15:51:13;7.12;;;4.90;;